createdAt,value
2022-11-10T00:00:47.600Z,44.40
2022-11-10T00:03:16.138Z,44.51
2022-11-10T00:05:43.239Z,44.45
2022-11-10T00:08:12.061Z,44.33
2022-11-10T00:10:40.361Z,44.40
2022-11-10T00:13:08.228Z,44.50
2022-11-10T00:15:35.318Z,44.78
2022-11-10T00:18:02.683Z,44.88
2022-11-10T00:20:31.446Z,44.51
2022-11-10T00:22:58.554Z,44.77
2022-11-10T00:25:26.290Z,44.59
2022-11-10T00:27:53.384Z,44.59
2022-11-10T00:30:20.496Z,44.83
2022-11-10T00:32:47.700Z,44.86
2022-11-10T00:35:15.029Z,44.74
2022-11-10T00:37:43.567Z,44.70
2022-11-10T00:40:11.402Z,44.20
2022-11-10T00:42:38.497Z,44.18
2022-11-10T00:45:06.926Z,44.48
2022-11-10T00:47:34.175Z,44.42
2022-11-10T00:50:01.275Z,44.40
2022-11-10T00:52:28.368Z,44.35
2022-11-10T00:54:56.914Z,44.60
2022-11-10T00:57:24.046Z,44.45
2022-11-10T00:59:51.188Z,44.48
2022-11-10T01:02:18.320Z,44.68
2022-11-10T01:04:45.413Z,44.57
2022-11-10T01:07:12.605Z,44.70
2022-11-10T01:09:39.773Z,44.75
2022-11-10T01:12:08.300Z,44.60
2022-11-10T01:14:35.442Z,44.55
2022-11-10T01:17:02.572Z,45.01
2022-11-10T01:19:29.689Z,44.95
2022-11-10T01:21:56.805Z,44.80
2022-11-10T01:24:23.959Z,44.63
2022-11-10T01:26:51.074Z,44.79
2022-11-10T01:29:19.570Z,44.74
2022-11-10T01:31:46.689Z,44.73
2022-11-10T01:34:13.792Z,44.75
2022-11-10T01:36:40.886Z,44.53
2022-11-10T01:39:08.005Z,44.62
2022-11-10T01:41:35.106Z,44.69
2022-11-10T01:44:16.698Z,44.79
2022-11-10T01:46:45.178Z,44.74
2022-11-10T01:49:14.327Z,44.87
2022-11-10T01:51:47.806Z,44.92
2022-11-10T01:54:19.202Z,44.98
2022-11-10T01:56:50.248Z,45.09
2022-11-10T01:59:20.760Z,44.95
2022-11-10T02:01:53.271Z,44.89
2022-11-10T02:04:20.937Z,45.29
2022-11-10T02:06:49.794Z,45.16
2022-11-10T02:09:17.915Z,44.88
2022-11-10T02:11:46.478Z,44.98
2022-11-10T02:14:15.382Z,45.22
2022-11-10T02:16:43.040Z,45.10
2022-11-10T02:19:20.544Z,44.96
2022-11-10T02:21:49.055Z,44.93
2022-11-10T02:24:16.171Z,45.02
2022-11-10T02:26:46.721Z,45.03
2022-11-10T02:29:14.350Z,45.13
2022-11-10T02:31:41.838Z,44.86
2022-11-10T02:34:08.929Z,44.92
2022-11-10T02:36:36.079Z,44.78
2022-11-10T02:39:04.564Z,44.98
2022-11-10T02:41:31.689Z,45.01
2022-11-10T02:43:59.315Z,45.06
2022-11-10T02:46:26.467Z,45.09
2022-11-10T02:48:53.588Z,45.15
2022-11-10T02:51:21.176Z,45.04
2022-11-10T02:53:48.289Z,45.25
2022-11-10T02:56:16.782Z,45.28
2022-11-10T02:58:43.926Z,45.21
2022-11-10T03:01:11.325Z,45.13
2022-11-10T03:03:38.438Z,45.17
2022-11-10T03:06:06.189Z,45.12
2022-11-10T03:08:33.362Z,45.15
2022-11-10T03:11:00.515Z,45.16
2022-11-10T03:13:40.296Z,44.94
2022-11-10T03:16:16.104Z,44.82
2022-11-10T03:18:43.218Z,44.68
2022-11-10T03:21:10.326Z,44.75
2022-11-10T03:23:37.542Z,44.32
2022-11-10T03:26:05.242Z,44.68
2022-11-10T03:28:33.701Z,44.60
2022-11-10T03:31:00.906Z,44.74
2022-11-10T03:33:28.056Z,44.77
2022-11-10T03:35:55.379Z,44.85
2022-11-10T03:38:22.495Z,45.09
2022-11-10T03:41:17.705Z,44.96
2022-11-10T03:43:38.673Z,45.06
2022-11-10T03:46:06.041Z,44.96
2022-11-10T03:48:33.152Z,44.96
2022-11-10T03:51:00.263Z,45.38
2022-11-10T03:53:27.367Z,44.99
2022-11-10T03:55:54.558Z,45.22
2022-11-10T03:58:21.679Z,45.33
2022-11-10T04:00:52.541Z,45.12
2022-11-10T04:03:20.211Z,45.05
2022-11-10T04:05:47.575Z,44.98
2022-11-10T04:08:17.109Z,44.93
2022-11-10T04:10:45.079Z,44.76
2022-11-10T04:13:12.821Z,44.75
2022-11-10T04:15:39.947Z,44.70
2022-11-10T04:18:08.955Z,44.76
2022-11-10T04:20:36.067Z,44.86
2022-11-10T04:23:03.250Z,44.88
2022-11-10T04:25:30.350Z,44.96
2022-11-10T04:27:57.440Z,44.80
2022-11-10T04:30:24.555Z,45.03
2022-11-10T04:32:53.618Z,45.28
2022-11-10T04:35:22.090Z,44.85
2022-11-10T04:37:49.206Z,45.10
2022-11-10T04:40:16.470Z,44.99
2022-11-10T04:42:43.564Z,44.80
2022-11-10T04:45:10.923Z,45.47
2022-11-10T04:47:38.010Z,45.47
2022-11-10T04:50:05.723Z,48.85
2022-11-10T04:52:34.212Z,46.20
2022-11-10T04:55:01.304Z,45.48
2022-11-10T04:57:28.416Z,45.29
2022-11-10T04:59:55.546Z,45.01
2022-11-10T05:02:22.668Z,44.93
2022-11-10T05:04:49.783Z,44.96
2022-11-10T05:07:16.886Z,44.70
2022-11-10T05:09:45.374Z,44.57
2022-11-10T05:12:12.469Z,44.50
2022-11-10T05:14:39.754Z,44.84
2022-11-10T05:17:06.858Z,44.72
2022-11-10T05:19:33.955Z,44.81
2022-11-10T05:22:01.074Z,44.72
2022-11-10T05:24:28.258Z,44.42
2022-11-10T05:26:56.703Z,44.94
2022-11-10T05:29:23.813Z,44.66
2022-11-10T05:31:51.783Z,44.59
2022-11-10T05:34:18.953Z,45.16
2022-11-10T05:36:46.071Z,45.17
2022-11-10T05:39:13.178Z,45.43
2022-11-10T05:41:40.281Z,45.54
2022-11-10T05:44:08.939Z,45.72
2022-11-10T05:46:36.173Z,45.65
2022-11-10T05:49:03.451Z,45.36
2022-11-10T05:51:30.737Z,45.35
2022-11-10T05:53:57.843Z,45.45
2022-11-10T05:56:24.957Z,45.40
2022-11-10T05:58:52.099Z,45.44
2022-11-10T06:01:20.611Z,45.33
2022-11-10T06:03:47.760Z,46.27
2022-11-10T06:06:14.898Z,46.13
2022-11-10T06:08:41.994Z,45.73
2022-11-10T06:11:09.091Z,45.55
2022-11-10T06:13:36.199Z,45.47
2022-11-10T06:16:03.398Z,45.79
2022-11-10T06:18:31.856Z,45.60
2022-11-10T06:20:59.205Z,45.77
2022-11-10T06:23:26.302Z,45.76
2022-11-10T06:25:53.406Z,45.67
2022-11-10T06:28:20.525Z,45.78
2022-11-10T06:30:47.626Z,46.68
2022-11-10T06:33:14.719Z,46.68
2022-11-10T06:35:43.186Z,47.20
2022-11-10T06:38:11.131Z,47.83
2022-11-10T06:40:38.453Z,47.65
2022-11-10T06:43:05.589Z,47.85
2022-11-10T06:45:32.694Z,48.24
2022-11-10T06:48:00.645Z,48.04
2022-11-10T06:50:27.823Z,47.96
2022-11-10T06:52:57.501Z,48.01
2022-11-10T06:55:25.127Z,47.82
2022-11-10T06:57:52.315Z,48.08
2022-11-10T07:00:20.058Z,47.97
2022-11-10T07:02:47.163Z,47.98
2022-11-10T07:05:14.431Z,48.10
2022-11-10T07:07:41.557Z,47.69
2022-11-10T07:10:10.280Z,47.89
2022-11-10T07:12:37.393Z,48.38
2022-11-10T07:15:05.070Z,48.32
2022-11-10T07:17:32.170Z,47.99
2022-11-10T07:19:59.294Z,47.92
2022-11-10T07:22:26.394Z,47.97
2022-11-10T07:24:53.501Z,47.97
2022-11-10T07:27:22.099Z,48.08
2022-11-10T07:29:49.206Z,47.94
2022-11-10T07:32:16.387Z,47.81
2022-11-10T07:34:43.547Z,47.32
2022-11-10T07:37:10.641Z,47.24
2022-11-10T07:39:37.747Z,46.94
2022-11-10T07:42:04.992Z,47.12
2022-11-10T07:44:33.474Z,46.64
2022-11-10T07:47:00.581Z,46.51
2022-11-10T07:49:27.837Z,46.38
2022-11-10T07:51:55.023Z,46.13
2022-11-10T07:54:22.130Z,46.11
2022-11-10T07:56:49.252Z,46.20
2022-11-10T07:59:16.358Z,46.50
2022-11-10T08:01:45.855Z,46.25
2022-11-10T08:04:13.010Z,45.92
2022-11-10T08:06:40.198Z,45.81
2022-11-10T08:09:07.438Z,46.08
2022-11-10T08:11:34.576Z,45.60
2022-11-10T08:14:01.671Z,45.74
2022-11-10T08:16:28.761Z,45.93
2022-11-10T08:18:57.223Z,46.18
2022-11-10T08:21:24.367Z,45.99
2022-11-10T08:23:51.491Z,45.96
2022-11-10T08:26:18.610Z,45.95
2022-11-10T08:28:45.726Z,45.85
2022-11-10T08:31:12.828Z,45.65
2022-11-10T08:33:40.073Z,45.46
2022-11-10T08:36:09.581Z,45.47
2022-11-10T08:38:36.671Z,45.94
2022-11-10T08:41:03.839Z,45.50
2022-11-10T08:43:30.957Z,45.54
2022-11-10T08:45:58.078Z,45.49
2022-11-10T08:48:25.411Z,45.53
2022-11-10T08:50:52.525Z,45.35
2022-11-10T08:53:22.933Z,45.45
2022-11-10T08:55:51.179Z,45.12
2022-11-10T08:58:20.297Z,45.50
2022-11-10T09:00:48.172Z,45.35
2022-11-10T09:03:17.101Z,45.63
2022-11-10T09:05:45.359Z,45.54
2022-11-10T09:08:12.985Z,45.63
2022-11-10T09:10:44.185Z,45.54
2022-11-10T09:13:12.938Z,45.49
2022-11-10T09:15:40.846Z,45.52
2022-11-10T09:18:12.384Z,45.66
2022-11-10T09:20:39.735Z,45.49
2022-11-10T09:23:08.637Z,45.43
2022-11-10T09:25:35.834Z,45.38
2022-11-10T09:28:04.877Z,45.42
2022-11-10T09:30:32.694Z,45.01
2022-11-10T09:33:00.476Z,44.95
2022-11-10T09:35:27.788Z,44.83
2022-11-10T09:37:54.908Z,45.22
2022-11-10T09:40:27.915Z,44.81
2022-11-10T09:42:57.700Z,44.83
2022-11-10T09:45:31.929Z,44.68
2022-11-10T09:48:06.238Z,44.91
2022-11-10T09:50:44.176Z,44.82
2022-11-10T09:53:15.914Z,45.01
2022-11-10T09:55:46.953Z,45.40
2022-11-10T09:58:15.415Z,43.66
2022-11-10T10:01:03.723Z,43.77
2022-11-10T10:03:31.809Z,43.43
2022-11-10T10:06:07.153Z,43.73
2022-11-10T10:08:45.251Z,43.53
2022-11-10T10:11:25.517Z,43.66
2022-11-10T10:14:13.489Z,43.47
2022-11-10T10:16:49.049Z,43.49
2022-11-10T10:19:25.916Z,43.66
2022-11-10T10:22:07.953Z,43.40
2022-11-10T10:24:37.546Z,43.73
2022-11-10T10:27:07.134Z,44.10
2022-11-10T10:29:39.661Z,43.98
2022-11-10T10:32:12.327Z,43.98
2022-11-10T10:34:41.066Z,44.01
2022-11-10T10:37:23.595Z,43.99
2022-11-10T10:39:53.249Z,44.20
2022-11-10T10:42:28.786Z,43.96
2022-11-10T10:45:15.205Z,44.15
2022-11-10T10:47:43.939Z,44.44
2022-11-10T10:50:29.219Z,44.38
2022-11-10T10:53:12.942Z,44.28
2022-11-10T10:55:46.523Z,44.63
2022-11-10T10:58:23.645Z,44.60
2022-11-10T11:00:53.970Z,44.05
2022-11-10T11:03:27.685Z,43.98
2022-11-10T11:06:07.057Z,43.46
2022-11-10T11:08:34.802Z,43.29
2022-11-10T11:11:10.018Z,43.75
2022-11-10T11:13:37.363Z,43.77
2022-11-10T11:16:06.480Z,43.92
2022-11-10T11:18:38.450Z,44.86
2022-11-10T11:21:14.988Z,43.94
2022-11-10T11:24:05.961Z,43.30
2022-11-10T11:26:41.696Z,43.24
2022-11-10T11:29:23.903Z,42.83
2022-11-10T11:32:03.878Z,43.13
2022-11-10T11:34:42.981Z,42.81
2022-11-10T11:37:19.673Z,42.83
2022-11-10T11:40:00.155Z,42.67
2022-11-10T11:42:41.865Z,42.13
2022-11-10T11:45:18.470Z,42.65
2022-11-10T11:47:59.972Z,42.83
2022-11-10T11:50:32.174Z,42.58
2022-11-10T11:53:12.469Z,43.00
2022-11-10T11:56:00.416Z,43.00
2022-11-10T11:58:38.415Z,43.29
2022-11-10T12:01:21.120Z,42.81
2022-11-10T12:04:27.229Z,42.46
2022-11-10T12:07:11.042Z,42.83
2022-11-10T12:09:44.514Z,42.37
2022-11-10T12:12:29.011Z,42.88
2022-11-10T12:15:04.466Z,43.52
2022-11-10T12:17:41.948Z,43.08
2022-11-10T12:20:21.493Z,43.38
2022-11-10T12:22:59.298Z,43.15
2022-11-10T12:25:33.251Z,43.56
2022-11-10T12:28:03.226Z,43.52
2022-11-10T12:30:31.984Z,43.73
2022-11-10T12:33:03.885Z,43.62
2022-11-10T12:35:35.507Z,43.84
2022-11-10T12:38:08.187Z,43.74
2022-11-10T12:40:41.974Z,43.24
2022-11-10T12:43:18.828Z,43.35
2022-11-10T12:45:51.571Z,43.61
2022-11-10T12:48:19.810Z,43.99
2022-11-10T12:50:54.852Z,44.02
2022-11-10T12:53:25.620Z,43.99
2022-11-10T12:55:57.097Z,43.62
2022-11-10T12:58:24.763Z,43.85
2022-11-10T13:00:57.664Z,43.70
2022-11-10T13:03:28.405Z,43.99
2022-11-10T13:05:58.732Z,43.66
2022-11-10T13:08:33.508Z,43.85
2022-11-10T13:11:03.646Z,43.97
2022-11-10T13:13:40.651Z,43.73
2022-11-10T13:16:09.787Z,43.78
2022-11-10T13:18:57.733Z,44.48
2022-11-10T13:22:02.113Z,44.74
2022-11-10T13:24:31.836Z,44.85
2022-11-10T13:26:59.841Z,44.79
2022-11-10T13:29:32.746Z,44.85
2022-11-10T13:32:24.107Z,44.99
2022-11-10T13:34:51.913Z,44.79
2022-11-10T13:37:46.346Z,44.63
2022-11-10T13:40:30.098Z,44.06
2022-11-10T13:43:22.172Z,44.32
2022-11-10T13:46:03.550Z,44.63
2022-11-10T13:49:02.143Z,44.24
2022-11-10T13:51:39.449Z,44.42
2022-11-10T13:54:50.872Z,44.28
2022-11-10T13:57:27.731Z,44.29
2022-11-10T13:59:56.857Z,44.55
2022-11-10T14:02:46.777Z,44.45
2022-11-10T14:05:59.508Z,44.15
2022-11-10T14:08:33.082Z,44.08
2022-11-10T14:11:03.371Z,44.21
2022-11-10T14:13:39.142Z,44.31
2022-11-10T14:16:16.185Z,44.61
2022-11-10T14:18:50.423Z,44.61
2022-11-10T14:21:25.545Z,44.61
2022-11-10T14:23:56.631Z,44.64
2022-11-10T14:26:30.165Z,45.23
2022-11-10T14:29:36.195Z,45.20
2022-11-10T14:32:05.453Z,44.75
2022-11-10T14:34:43.176Z,44.62
2022-11-10T14:37:17.510Z,44.71
2022-11-10T14:39:44.696Z,44.86
2022-11-10T14:42:15.530Z,44.85
2022-11-10T14:44:44.053Z,44.74
2022-11-10T14:47:24.787Z,44.94
2022-11-10T14:50:16.594Z,45.46
2022-11-10T14:52:46.840Z,45.02
2022-11-10T14:55:17.348Z,44.92
2022-11-10T14:57:48.779Z,44.78
2022-11-10T15:00:23.702Z,44.99
2022-11-10T15:02:52.816Z,44.73
2022-11-10T15:05:20.285Z,44.93
2022-11-10T15:07:48.365Z,45.07
2022-11-10T15:10:20.197Z,44.88
2022-11-10T15:12:59.401Z,44.92
2022-11-10T15:15:27.985Z,44.88
2022-11-10T15:17:55.246Z,44.95
2022-11-10T15:20:37.786Z,44.65
2022-11-10T15:23:15.059Z,44.62
2022-11-10T15:25:42.380Z,44.25
2022-11-10T15:28:27.082Z,44.84
2022-11-10T15:30:58.242Z,45.10
2022-11-10T15:33:27.643Z,45.20
2022-11-10T15:35:55.967Z,44.78
2022-11-10T15:38:31.786Z,45.09
2022-11-10T15:41:09.920Z,45.06
2022-11-10T15:43:37.139Z,45.32
2022-11-10T15:46:18.168Z,45.24
2022-11-10T15:48:48.558Z,45.29
2022-11-10T15:51:22.847Z,45.53
2022-11-10T15:53:53.729Z,45.82
2022-11-10T15:56:23.386Z,45.74
2022-11-10T15:58:52.071Z,45.42
2022-11-10T16:01:20.734Z,45.46
2022-11-10T16:03:47.924Z,45.78
2022-11-10T16:06:16.328Z,45.71
2022-11-10T16:08:43.566Z,45.48
2022-11-10T16:11:16.207Z,45.27
2022-11-10T16:13:43.703Z,45.26
2022-11-10T16:16:12.978Z,45.55
2022-11-10T16:18:43.994Z,45.52
2022-11-10T16:21:12.524Z,45.41
2022-11-10T16:23:39.724Z,45.44
2022-11-10T16:26:07.267Z,45.46
2022-11-10T16:28:34.462Z,45.62
2022-11-10T16:31:01.572Z,45.53
2022-11-10T16:33:28.669Z,45.89
2022-11-10T16:35:57.190Z,45.52
2022-11-10T16:38:27.347Z,45.80
2022-11-10T16:40:58.017Z,45.67
2022-11-10T16:43:26.245Z,45.62
2022-11-10T16:45:55.513Z,45.60
2022-11-10T16:48:25.090Z,45.41
2022-11-10T16:50:54.949Z,45.20
2022-11-10T16:53:25.624Z,45.30
2022-11-10T16:55:53.074Z,45.12
2022-11-10T16:58:20.613Z,44.99
2022-11-10T17:00:48.721Z,45.00
2022-11-10T17:03:20.674Z,45.27
2022-11-10T17:05:48.558Z,45.62
2022-11-10T17:08:21.445Z,45.49
2022-11-10T17:10:50.487Z,45.06
2022-11-10T17:13:18.074Z,45.03
2022-11-10T17:15:46.634Z,45.18
2022-11-10T17:18:16.892Z,44.75
2022-11-10T17:20:47.068Z,44.86
2022-11-10T17:23:16.814Z,44.46
2022-11-10T17:25:44.505Z,44.54
2022-11-10T17:28:15.589Z,44.40
2022-11-10T17:30:42.963Z,44.10
2022-11-10T17:33:10.555Z,44.20
2022-11-10T17:35:43.843Z,44.73
2022-11-10T17:38:12.666Z,44.79
2022-11-10T17:40:41.998Z,44.73
2022-11-10T17:43:10.808Z,44.48
2022-11-10T17:45:40.494Z,44.76
2022-11-10T17:48:07.937Z,44.49
2022-11-10T17:50:36.011Z,44.40
2022-11-10T17:53:08.934Z,44.24
2022-11-10T17:55:36.043Z,43.94
2022-11-10T17:58:03.239Z,44.13
2022-11-10T18:00:30.329Z,44.05
2022-11-10T18:02:58.935Z,43.81
2022-11-10T18:05:26.049Z,43.75
2022-11-10T18:07:53.155Z,44.05
2022-11-10T18:10:20.574Z,43.75
2022-11-10T18:12:47.704Z,43.77
2022-11-10T18:15:16.451Z,43.67
2022-11-10T18:17:44.109Z,44.04
2022-11-10T18:20:13.791Z,43.65
2022-11-10T18:22:41.264Z,43.66
2022-11-10T18:25:09.758Z,44.24
2022-11-10T18:27:37.325Z,44.02
2022-11-10T18:30:06.024Z,44.20
2022-11-10T18:32:33.173Z,44.20
2022-11-10T18:35:00.299Z,44.17
2022-11-10T18:37:28.767Z,44.10
2022-11-10T18:39:55.885Z,44.25
2022-11-10T18:42:22.995Z,43.95
2022-11-10T18:44:50.112Z,43.90
2022-11-10T18:47:17.268Z,43.79
2022-11-10T18:49:44.378Z,43.80
2022-11-10T18:52:11.486Z,43.48
2022-11-10T18:54:40.217Z,43.67
2022-11-10T18:57:07.318Z,43.50
2022-11-10T18:59:34.405Z,43.75
2022-11-10T19:02:01.622Z,43.60
2022-11-10T19:04:28.935Z,43.51
2022-11-10T19:06:56.106Z,43.53
2022-11-10T19:09:23.281Z,46.29
2022-11-10T19:11:51.750Z,45.37
2022-11-10T19:14:18.927Z,44.96
2022-11-10T19:16:46.082Z,44.78
2022-11-10T19:19:13.406Z,44.62
2022-11-10T19:21:40.777Z,44.48
2022-11-10T19:24:08.365Z,44.47
2022-11-10T19:26:35.461Z,44.56
2022-11-10T19:29:04.364Z,44.63
2022-11-10T19:31:31.478Z,44.29
2022-11-10T19:33:58.599Z,44.27
2022-11-10T19:36:27.650Z,43.90
2022-11-10T19:38:55.500Z,44.16
2022-11-10T19:41:24.852Z,44.09
2022-11-10T19:43:52.059Z,44.07
2022-11-10T19:46:22.513Z,43.61
2022-11-10T19:48:49.862Z,43.65
2022-11-10T19:51:18.442Z,43.54
2022-11-10T19:53:47.634Z,43.77
2022-11-10T19:56:16.468Z,43.79
2022-11-10T19:58:43.805Z,43.71
2022-11-10T20:01:11.735Z,43.35
2022-11-10T20:03:41.563Z,43.35
2022-11-10T20:06:10.024Z,44.03
2022-11-10T20:08:38.046Z,44.03
2022-11-10T20:11:07.981Z,43.93
2022-11-10T20:13:35.314Z,43.91
2022-11-10T20:16:03.730Z,44.16
2022-11-10T20:18:30.847Z,44.29
2022-11-10T20:21:03.317Z,44.13
2022-11-10T20:23:30.730Z,44.07
2022-11-10T20:26:06.698Z,43.74
2022-11-10T20:28:34.190Z,43.73
2022-11-10T20:31:02.278Z,43.68
2022-11-10T20:33:30.561Z,43.62
2022-11-10T20:36:05.365Z,43.53
2022-11-10T20:38:32.590Z,43.72
2022-11-10T20:41:04.781Z,43.82
2022-11-10T20:43:34.080Z,43.26
2022-11-10T20:46:01.614Z,43.65
2022-11-10T20:48:29.815Z,43.62
2022-11-10T20:50:57.171Z,43.27
2022-11-10T20:53:26.064Z,43.54
2022-11-10T20:55:56.974Z,43.73
2022-11-10T20:58:24.269Z,44.13
2022-11-10T21:00:51.750Z,44.17
2022-11-10T21:03:19.437Z,43.94
2022-11-10T21:05:46.687Z,44.36
2022-11-10T21:08:13.788Z,44.27
2022-11-10T21:10:49.853Z,43.87
2022-11-10T21:13:16.956Z,44.03
2022-11-10T21:15:48.638Z,43.87
2022-11-10T21:18:16.036Z,43.75
2022-11-10T21:20:43.143Z,43.73
2022-11-10T21:23:10.266Z,43.76
2022-11-10T21:25:37.420Z,43.56
2022-11-10T21:28:06.035Z,43.65
2022-11-10T21:30:33.434Z,43.59
2022-11-10T21:33:00.642Z,43.58
2022-11-10T21:35:27.753Z,43.44
2022-11-10T21:37:54.871Z,43.58
2022-11-10T21:40:22.011Z,43.60
2022-11-10T21:42:53.952Z,43.09
2022-11-10T21:45:22.472Z,43.28
2022-11-10T21:47:49.571Z,43.61
2022-11-10T21:50:16.818Z,44.04
2022-11-10T21:52:44.037Z,43.72
2022-11-10T21:55:11.145Z,43.63
2022-11-10T21:57:38.738Z,43.96
2022-11-10T22:00:07.084Z,43.73
2022-11-10T22:02:35.546Z,43.89
2022-11-10T22:05:03.062Z,43.36
2022-11-10T22:07:30.227Z,43.75
2022-11-10T22:09:57.444Z,43.73
2022-11-10T22:12:24.538Z,43.35
2022-11-10T22:14:51.641Z,43.12
2022-11-10T22:17:18.749Z,43.50
2022-11-10T22:19:47.212Z,43.21
2022-11-10T22:22:14.443Z,43.38
2022-11-10T22:24:41.571Z,42.95
2022-11-10T22:27:08.680Z,43.72
2022-11-10T22:29:35.805Z,43.40
2022-11-10T22:32:03.190Z,43.22
2022-11-10T22:34:30.309Z,43.23
2022-11-10T22:36:58.803Z,43.11
2022-11-10T22:39:25.919Z,43.60
2022-11-10T22:41:53.023Z,43.53
2022-11-10T22:44:24.803Z,43.54
2022-11-10T22:46:52.658Z,43.75
2022-11-10T22:49:21.978Z,43.90
2022-11-10T22:51:50.723Z,43.67
2022-11-10T22:54:20.584Z,43.38
2022-11-10T22:56:47.782Z,43.17
2022-11-10T22:59:15.505Z,43.29
2022-11-10T23:01:43.788Z,43.42
2022-11-10T23:04:11.376Z,43.39
2022-11-10T23:06:38.895Z,43.20
2022-11-10T23:09:06.307Z,43.38
2022-11-10T23:11:34.792Z,43.06
2022-11-10T23:14:01.899Z,43.11
2022-11-10T23:16:32.659Z,43.14
2022-11-10T23:19:00.253Z,43.47
2022-11-10T23:21:28.925Z,43.32
2022-11-10T23:23:56.445Z,43.26
2022-11-10T23:26:25.844Z,43.41
2022-11-10T23:28:54.460Z,43.21
2022-11-10T23:31:23.571Z,43.27
2022-11-10T23:33:52.338Z,43.56
2022-11-10T23:36:20.991Z,43.42
2022-11-10T23:38:48.462Z,43.50
2022-11-10T23:41:17.578Z,43.61
2022-11-10T23:43:44.740Z,43.42
2022-11-10T23:46:13.323Z,43.67
2022-11-10T23:48:41.127Z,43.18
2022-11-10T23:51:12.774Z,43.29
2022-11-10T23:53:40.071Z,43.09
2022-11-10T23:56:10.617Z,43.22
2022-11-10T23:58:37.976Z,43.07
